Weather observations for the past three days for
CARRINGTON
Imperial (Metric)
Date Time (cdt) Wind (mph) Vis. (mi.) Weather Sky Cond. Temperature (ºF) Relative Humidity Wind Chill (°F) Heat Index (°F) Pressure Precipitation (in)
Air Dwpt 6 hour altimeter (in) sea level (mb) 1 hr 3 hr 6 hr
Max. Min.
30 23:15 Calm 10.00 Mostly Cloudy SCT013 BKN120 64.4 64.4 100% 29.73 0.0
30 22:55 NW 7 10.00 Mostly Cloudy BKN013 66.2 64.4 94% 29.75 0.0
30 22:35 NW 9 G 18 10.00 A Few Clouds FEW021 FEW046 FEW120 66.2 66.2 100% 29.75 0.0
30 22:15 NW 14 G 24 9.00 Thunderstorm in Vicinity Rain FEW002 SCT010 BKN023 64.4 64.4 100% 29.72 0.0
30 21:55 NW 30 G 55 0.50 Thunderstorm Heavy Rain and Windy OVC001 66.2 66.2 100% 29.75 0.0
30 21:35 S 9 3.00 Thunderstorm in Vicinity Rain SCT002 BKN010 OVC016 71.6 69.8 94% 29.74 0.0
30 21:15 SE 6 5.00 Fog/Mist BKN002 BKN014 OVC018 71.6 69.8 94% 29.73 0.0
30 20:55 SE 8 3.00 Fog/Mist SCT002 BKN007 OVC033 71.6 71.6 100% 29.73 0.0
30 20:35 SE 8 3.00 Fog/Mist FEW001 SCT007 BKN013 71.6 71.6 100% 29.74 0.0
30 20:15 SE 10 2.00 Fog/Mist OVC014 71.6 71.6 100% 29.74 0.0
30 19:55 SE 9 10.00 Overcast OVC016 73.4 73.4 100% 29.73 0.0
30 19:35 SE 8 10.00 Overcast OVC017 73.4 73.4 100% 29.72 0.0
30 19:15 SE 9 10.00 Overcast OVC017 75.2 73.4 94% 74 29.72 0.0
30 18:55 SE 7 G 14 10.00 Overcast BKN020 OVC025 75.2 75.2 100% 73 29.72 0.0
30 18:35 SE 8 10.00 Overcast BKN017 OVC024 75.2 73.4 94% 74 29.72 0.0
30 18:15 E 12 10.00 Overcast OVC018 75.2 73.4 94% 74 29.71 0.0
30 17:55 E 10 10.00 Overcast OVC020 75.2 71.6 89% 75 29.71 0.0
30 17:35 E 12 10.00 Overcast OVC020 75.2 71.6 89% 75 29.72 0.0
30 17:15 E 12 10.00 Overcast OVC019 75.2 71.6 89% 75 29.72 0.0
30 16:55 SE 9 10.00 Overcast OVC019 75.2 71.6 89% 75 29.74 0.0
30 16:35 E 9 10.00 Overcast OVC021 77 71.6 83% 78 29.75 0.0
30 16:15 E 10 10.00 Overcast OVC021 77 69.8 79% 79 29.75 0.0
30 15:55 SE 9 10.00 Overcast OVC019 77 69.8 79% 79 29.75 0.0
30 15:35 E 10 10.00 Overcast OVC020 78.8 69.8 74% 81 29.75 0.0
30 15:15 E 12 10.00 Overcast OVC021 78.8 69.8 74% 81 29.77 0.0
30 14:55 SE 13 10.00 Overcast OVC020 77 69.8 79% 79 29.78 0.0
30 14:35 E 9 G 16 10.00 Overcast OVC019 77 69.8 79% 79 29.78 0.0
30 14:15 SE 12 10.00 Overcast OVC018 75.2 69.8 83% 75 29.78 0.0
30 13:55 SE 15 10.00 Overcast BKN019 OVC100 77 69.8 79% 79 29.78 0.0
30 13:35 SE 13 10.00 Mostly Cloudy SCT017 SCT050 BKN100 77 71.6 83% 78 29.79 0.0
30 13:15 E 9 G 18 10.00 Partly Cloudy SCT016 SCT028 SCT045 77 73.4 89% 78 29.79 0.0
30 12:55 E 14 10.00 Mostly Cloudy SCT016 BKN030 BKN043 75.2 71.6 89% 75 29.8 0.0
30 12:35 E 12 10.00 Overcast SCT012 BKN017 OVC032 73.4 71.6 94% 29.81 0.0
30 12:15 E 12 10.00 Overcast BKN011 BKN016 OVC026 71.6 71.6 100% 29.81 0.0
30 11:55 E 10 10.00 Overcast BKN009 OVC026 71.6 71.6 100% 29.81 0.0
30 11:35 E 12 10.00 Overcast SCT007 BKN010 OVC023 71.6 71.6 100% 29.81 0.0
30 11:15 E 9 10.00 Overcast SCT006 OVC023 69.8 69.8 100% 29.81 0.0
30 10:55 E 9 10.00 Overcast OVC006 69.8 69.8 100% 29.81 0.0
30 10:35 E 12 10.00 Overcast OVC005 69.8 69.8 100% 29.82 0.0
30 10:15 E 12 10.00 Overcast OVC004 69.8 69.8 100% 29.81 0.0
30 09:55 E 9 G 15 10.00 Overcast OVC004 69.8 68 94% 29.82 0.0
30 09:35 E 9 G 15 10.00 Overcast OVC004 68 68 100% 29.82 0.0
30 09:15 E 12 G 17 10.00 Overcast OVC004 68 68 100% 29.82 0.0
30 08:55 SE 12 10.00 Overcast OVC004 68 68 100% 29.82 0.0
30 08:35 E 8 10.00 Overcast OVC004 68 68 100% 29.81 0.0
30 08:15 E 10 10.00 Mostly Cloudy BKN004 68 68 100% 29.8 0.0
30 07:55 E 10 10.00 Partly Cloudy FEW003 SCT007 68 68 100% 29.79 0.0
30 07:35 E 8 10.00 Overcast BKN005 OVC036 68 68 100% 29.79 0.0
30 07:15 E 8 10.00 Overcast SCT006 OVC036 68 68 100% 29.8 0.0
30 06:55 E 8 10.00 Partly Cloudy SCT036 SCT120 68 68 100% 29.81 0.0
30 06:35 E 8 10.00 Partly Cloudy FEW018 SCT034 SCT041 68 68 100% 29.81 0.0
30 06:15 E 7 10.00 Mostly Cloudy FEW018 BKN034 68 68 100% 29.82 0.0
30 05:55 E 5 10.00 Mostly Cloudy FEW029 BKN036 69.8 68 94% 29.82 0.0
30 05:35 E 6 10.00 Overcast FEW029 OVC035 69.8 69.8 100% 29.8 0.0
30 05:15 E 6 10.00 Overcast OVC034 69.8 69.8 100% 29.81 0.0
30 04:55 SE 6 10.00 Light Drizzle OVC036 69.8 69.8 100% 29.8 0.0
30 04:35 SE 6 10.00 Overcast OVC036 69.8 69.8 100% 29.81 0.0
30 04:15 E 8 10.00 Overcast OVC036 69.8 69.8 100% 29.8 0.0
30 03:55 SE 6 10.00 Overcast SCT024 OVC036 69.8 69.8 100% 29.81 0.0
30 03:35 E 8 10.00 Overcast SCT024 BKN036 OVC120 69.8 69.8 100% 29.8 0.0
30 03:15 E 7 10.00 Mostly Cloudy FEW036 BKN120 69.8 69.8 100% 29.81 0.0
30 02:55 E 7 10.00 Mostly Cloudy FEW023 BKN036 BKN120 69.8 69.8 100% 29.81 0.0
30 02:35 E 7 10.00 Overcast FEW022 FEW027 OVC035 69.8 69.8 100% 29.82 0.0
30 02:15 E 8 10.00 Overcast BKN022 BKN028 OVC035 69.8 69.8 100% 29.82 0.0
30 01:55 E 7 10.00 Overcast BKN021 OVC027 69.8 69.8 100% 29.82 0.0
30 01:35 E 7 10.00 Overcast BKN023 BKN027 OVC034 71.6 69.8 94% 29.81 0.0
30 01:15 E 7 10.00 Overcast BKN027 OVC032 71.6 71.6 100% 29.82 0.0
30 00:55 E 8 10.00 Overcast OVC029 71.6 71.6 100% 29.82 0.0
30 00:35 E 7 10.00 Overcast SCT024 OVC031 71.6 71.6 100% 29.82 0.0
30 00:15 E 6 10.00 Overcast BKN024 OVC032 71.6 71.6 100% 29.83 0.0
29 23:55 E 7 10.00 Partly Cloudy SCT032 71.6 71.6 100% 29.83 0.0
29 23:35 SE 8 10.00 Fair CLR 71.6 71.6 100% 29.82 0.0
29 23:15 SE 10 10.00 A Few Clouds FEW110 71.6 71.6 100% 29.83 0.0
29 22:55 E 8 10.00 Mostly Cloudy SCT035 BKN110 73.4 73.4 100% 29.83 0.0
29 22:35 SE 8 10.00 Overcast OVC035 73.4 73.4 100% 29.84 0.0
29 22:15 SE 8 10.00 Overcast OVC035 73.4 73.4 100% 29.83 0.0
29 21:55 E 9 10.00 Overcast OVC037 73.4 73.4 100% 29.83 0.0
29 21:35 SE 9 10.00 Mostly Cloudy BKN038 75.2 73.4 94% 74 29.83 0.0
29 21:15 SE 7 10.00 Mostly Cloudy BKN038 75.2 75.2 100% 73 29.83 0.0
29 20:55 E 9 10.00 Partly Cloudy SCT037 75.2 73.4 94% 74 29.81 0.0
29 20:35 E 7 10.00 Mostly Cloudy BKN035 77 73.4 89% 78 29.81 0.0
29 20:15 E 7 10.00 Mostly Cloudy BKN033 77 71.6 83% 78 29.8 0.0
29 19:55 E 7 10.00 Mostly Cloudy BKN032 77 71.6 83% 78 29.8 0.0
29 19:35 E 8 10.00 Partly Cloudy FEW022 SCT031 78.8 71.6 79% 82 29.79 0.0
29 19:15 E 7 10.00 Partly Cloudy SCT024 SCT030 80.6 71.6 74% 85 29.79 0.0
29 18:55 E 10 10.00 Mostly Cloudy BKN027 BKN034 80.6 71.6 74% 85 29.79 0.0
29 18:35 E 6 10.00 Partly Cloudy FEW023 SCT028 SCT035 80.6 71.6 74% 85 29.79 0.0
29 18:15 E 10 10.00 Mostly Cloudy BKN025 BKN035 80.6 71.6 74% 85 29.79 0.0
29 17:55 E 7 G 13 10.00 Mostly Cloudy BKN024 BKN029 80.6 71.6 74% 85 29.79 0.0
29 17:15 E 8 10.00 Partly Cloudy FEW022 SCT027 80.6 71.6 74% 85 29.79 0.0
29 16:55 Vrbl 7 10.00 A Few Clouds FEW022 80.6 71.6 74% 85 29.8 0.0
29 16:35 E 6 10.00 Fair CLR 80.6 71.6 74% 85 29.79 0.0
29 16:15 E 5 10.00 Fair CLR 80.6 71.6 74% 85 29.8 0.0
29 15:55 Vrbl 3 10.00 Fair CLR 80.6 71.6 74% 85 29.8 0.0
29 15:35 E 7 10.00 Fair CLR 80.6 71.6 74% 85 29.81 0.0
29 15:15 SE 7 10.00 Fair CLR 78.8 71.6 79% 82 29.81 0.0
29 14:55 Vrbl 5 10.00 Fair CLR 78.8 71.6 79% 82 29.81 0.0
29 14:35 E 6 10.00 Fair CLR 78.8 71.6 79% 82 29.8 0.0
29 14:15 E 6 10.00 Fair CLR 78.8 71.6 79% 82 29.81 0.0
29 13:55 E 5 10.00 Fair CLR 78.8 71.6 79% 82 29.81 0.0
29 13:35 Vrbl 3 10.00 Fair CLR 78.8 71.6 79% 82 29.81 0.0
29 13:15 Vrbl 5 10.00 Fair CLR 78.8 71.6 79% 82 29.81 0.0
29 12:55 NE 6 10.00 Fair CLR 77 71.6 83% 78 29.81 0.0
29 12:35 NE 7 10.00 Fair CLR 77 69.8 79% 79 29.81 0.0
29 11:15 S 6 10.00 Fair CLR 73.4 71.6 94% 29.82 0.0
29 10:55 SE 7 10.00 Fair CLR 71.6 71.6 100% 29.82 0.0
29 10:35 SE 7 10.00 Fair CLR 71.6 71.6 100% 29.82 0.0
29 10:15 SE 8 10.00 Fair CLR 71.6 71.6 100% 29.82 0.0
29 09:55 SE 7 10.00 Fair CLR 69.8 69.8 100% 29.81 0.0
29 09:35 SE 9 10.00 Fair CLR 69.8 68 94% 29.81 0.0
29 09:15 SE 7 10.00 A Few Clouds FEW110 68 68 100% 29.81 0.0
29 08:55 SE 7 10.00 A Few Clouds FEW110 68 66.2 94% 29.82 0.0
29 08:35 SE 6 10.00 A Few Clouds FEW120 66.2 66.2 100% 29.82 0.0
29 08:15 SE 5 10.00 Mostly Cloudy BKN120 66.2 66.2 100% 29.82 0.0
29 07:55 SE 5 10.00 Overcast OVC110 64.4 64.4 100% 29.82 0.0
29 07:35 SE 8 10.00 Overcast OVC110 64.4 64.4 100% 29.82 0.0
29 07:15 SE 7 10.00 Overcast OVC120 64.4 64.4 100% 29.81 0.0
29 06:55 SE 6 10.00 Mostly Cloudy BKN110 64.4 64.4 100% 29.81 0.0
29 06:35 E 5 10.00 Partly Cloudy SCT110 66.2 64.4 94% 29.8 0.0
29 06:15 E 6 10.00 Mostly Cloudy BKN120 66.2 64.4 94% 29.8 0.0
29 05:55 E 5 10.00 Partly Cloudy SCT120 66.2 66.2 100% 29.8 0.0
29 05:35 SE 6 10.00 A Few Clouds FEW120 66.2 66.2 100% 29.8 0.0
29 05:15 SE 7 10.00 Fair CLR 66.2 66.2 100% 29.8 0.0
29 04:55 E 5 10.00 Fair CLR 66.2 66.2 100% 29.8 0.0
29 04:35 SE 5 10.00 Fair CLR 66.2 66.2 100% 29.79 0.0
29 04:15 E 6 10.00 Fair CLR 66.2 66.2 100% 29.79 0.0
29 03:55 SE 5 10.00 Fair CLR 66.2 66.2 100% 29.81 0.0
29 03:35 Calm 10.00 Fair CLR 66.2 66.2 100% 29.8 0.0
29 03:15 SE 5 10.00 Fair CLR 66.2 64.4 94% 29.8 0.0
29 02:55 SE 5 10.00 Fair CLR 66.2 66.2 100% 29.81 0.0
29 02:35 SE 5 10.00 Fair CLR 66.2 66.2 100% 29.81 0.0
29 02:15 SE 5 10.00 Fair CLR 66.2 66.2 100% 29.81 0.0
29 01:55 SE 6 10.00 Fair CLR 68 66.2 94% 29.82 0.0
29 01:35 SE 7 10.00 Fair CLR 68 68 100% 29.82 0.0
29 01:15 SE 7 10.00 Fair CLR 68 68 100% 29.83 0.0
29 00:55 SE 8 10.00 Fair CLR 68 68 100% 29.84 0.0
29 00:35 SE 9 10.00 Fair CLR 68 68 100% 29.84 0.0
29 00:15 SE 9 10.00 Fair CLR 68 68 100% 29.84 0.0
28 23:55 SE 10 10.00 Fair CLR 68 68 100% 29.85 0.0
28 23:35 SE 10 10.00 Fair CLR 68 68 100% 29.86 0.0
28 23:15 SE 7 10.00 Fair CLR 68 68 100% 29.86 0.0
28 22:55 E 7 10.00 Fair CLR 68 68 100% 29.86 0.0
28 22:35 SE 6 10.00 Fair CLR 68 68 100% 29.88 0.0
28 22:15 SE 9 10.00 Fair CLR 69.8 68 94% 29.87 0.0
28 21:55 E 7 10.00 Fair CLR 69.8 68 94% 29.87 0.0
28 21:35 SE 9 10.00 Fair CLR 69.8 66.2 88% 29.87 0.0
28 21:15 SE 9 10.00 Fair CLR 69.8 66.2 88% 29.87 0.0
28 20:55 E 8 10.00 Fair CLR 71.6 66.2 83% 29.87 0.0
28 20:35 SE 12 10.00 Fair CLR 71.6 66.2 83% 29.87 0.0
28 20:15 SE 10 10.00 Fair CLR 71.6 66.2 83% 29.87 0.0
28 19:55 SE 13 10.00 Fair CLR 73.4 66.2 78% 29.87 0.0
28 19:35 SE 13 10.00 Fair CLR 75.2 66.2 74% 77 29.88 0.0
28 19:15 SE 12 G 17 10.00 Fair CLR 75.2 66.2 74% 77 29.89 0.0
28 18:55 SE 16 G 22 10.00 Fair CLR 77 64.4 65% 79 29.89 0.0
28 18:35 SE 17 G 24 10.00 Fair CLR 77 64.4 65% 79 29.9 0.0
28 18:15 SE 21 10.00 Fair and Breezy CLR 77 64.4 65% 79 29.89 0.0
28 17:55 SE 20 10.00 Fair CLR 77 64.4 65% 79 29.89 0.0
28 17:35 SE 17 G 25 10.00 Fair CLR 75.2 64.4 69% 77 29.9 0.0
28 17:15 SE 18 G 25 10.00 Fair CLR 77 64.4 65% 79 29.9 0.0
28 16:55 SE 20 G 25 10.00 Fair CLR 77 64.4 65% 79 29.91 0.0
28 16:35 SE 17 10.00 Fair CLR 75.2 64.4 69% 77 29.92 0.0
28 16:15 SE 14 G 22 10.00 Fair CLR 75.2 64.4 69% 77 29.93 0.0
28 15:55 E 14 10.00 A Few Clouds FEW110 73.4 66.2 78% 29.94 0.0
28 15:35 E 15 10.00 Mostly Cloudy FEW022 FEW035 BKN110 69.8 68 94% 29.95 0.0
28 15:15 E 13 10.00 Light Drizzle FEW002 BKN024 OVC120 68 66.2 94% 29.97 0.0
28 14:55 NE 7 10.00 Light Rain FEW001 SCT015 OVC120 68 66.2 94% 30 0.0
28 14:35 E 7 9.00 Light Rain SCT001 BKN039 OVC065 68 64.4 88% 29.99 0.0
28 14:15 SE 9 9.00 Mostly Cloudy FEW017 BKN040 BKN075 69.8 60.8 73% 29.99 0.0
28 13:55 E 8 G 16 10.00 Fair CLR 71.6 59 65% 29.99 0.0
28 13:35 E 15 10.00 Fair CLR 71.6 59 65% 29.96 0.0
28 13:15 SE 16 G 23 10.00 Fair CLR 71.6 59 65% 29.97 0.0
28 12:55 SE 20 10.00 Fair CLR 69.8 59 69% 29.98 0.0
28 12:35 SE 18 G 24 10.00 Fair CLR 71.6 59 65% 29.98 0.0
28 12:15 SE 18 10.00 Fair CLR 69.8 57.2 64% 29.98 0.0
28 11:55 SE 16 G 25 10.00 Fair CLR 69.8 57.2 64% 29.99 0.0
28 11:35 SE 18 G 24 10.00 Fair CLR 69.8 57.2 64% 30 0.0
28 11:15 SE 17 G 26 10.00 Fair CLR 69.8 57.2 64% 30 0.0
28 10:55 SE 22 10.00 Fair and Breezy CLR 69.8 57.2 64% 30 0.0
28 10:35 SE 15 10.00 Fair CLR 66.2 55.4 68% 30.03 0.0
28 10:15 SE 13 G 21 10.00 Fair CLR 64.4 55.4 73% 30.04 0.0
28 09:55 SE 10 10.00 Fair CLR 64.4 55.4 73% 30.05 0.0
28 09:35 SE 12 10.00 Mostly Cloudy BKN050 62.6 53.6 73% 30.06 0.0
28 09:15 SE 15 10.00 Mostly Cloudy BKN050 60.8 53.6 77% 30.06 0.0
28 08:55 SE 13 10.00 Partly Cloudy SCT055 60.8 55.4 83% 30.07 0.0
28 08:35 S 14 10.00 Fair CLR 60.8 55.4 83% 30.06 0.0
28 08:15 S 13 10.00 Fair CLR 59 55.4 88% 30.05 0.0
28 07:55 S 13 10.00 Fair CLR 59 55.4 88% 30.06 0.0
28 07:35 SE 9 10.00 Fair CLR 57.2 55.4 94% 30.05 0.0
28 07:15 SE 12 10.00 Fair CLR 55.4 55.4 100% 30.04 0.0
28 06:55 SE 9 10.00 Fair CLR 55.4 55.4 100% 30.05 0.0
28 06:35 SE 8 10.00 Fair CLR 53.6 53.6 100% 30.06 0.0
28 06:15 SE 9 10.00 Fair CLR 53.6 53.6 100% 30.07 0.0
28 05:55 SE 10 10.00 Fair CLR 55.4 53.6 94% 30.07 0.0
28 05:35 SE 9 10.00 Fair CLR 53.6 53.6 100% 30.07 0.0
28 05:15 SE 8 10.00 Fair CLR 53.6 53.6 100% 30.07 0.0
28 04:55 SE 9 10.00 Fair CLR 53.6 53.6 100% 30.07 0.0
28 04:35 SE 7 10.00 Fair CLR 53.6 53.6 100% 30.08 0.0
28 04:15 SE 8 10.00 Fair CLR 53.6 53.6 100% 30.09 0.0
28 03:35 SE 9 10.00 Fair CLR 55.4 55.4 100% 30.08 0.0
28 03:15 SE 9 10.00 Fair CLR 57.2 55.4 94% 30.09 0.0
28 02:55 SE 9 10.00 Fair CLR 55.4 55.4 100% 30.09 0.0
28 02:35 SE 10 10.00 Fair CLR 55.4 55.4 100% 30.09 0.0
28 02:15 SE 9 10.00 Fair CLR 55.4 55.4 100% 30.09 0.0
28 01:55 SE 8 10.00 Fair CLR 57.2 55.4 94% 30.1 0.0
28 01:35 SE 8 10.00 Fair CLR 59 57.2 94% 30.1 0.0
28 01:15 SE 9 10.00 Fair CLR 57.2 57.2 100% 30.1 0.0
28 00:55 SE 9 10.00 Fair CLR 57.2 55.4 94% 30.09 0.0
28 00:35 SE 7 10.00 Fair CLR 57.2 55.4 94% 30.09 0.0
28 00:15 SE 7 10.00 Fair CLR 59 53.6 82% 30.09 0.0
27 23:55 SE 9 10.00 Fair CLR 62.6 53.6 73% 30.09 0.0
27 23:35 E 7 10.00 Fair CLR 62.6 55.4 77% 30.09 0.0
Date Time (cdt) Wind (mph) Vis. (mi.) Weather Sky Cond. Air Dwpt Max. Min. Relative Humidity Wind Chill (°F) Heat Index (°F) altimeter (in) sea level (mb) 1 hr 3 hr 6 hr
6 hour
Temperature (ºF) Pressure Precipitation (in)